sensor_id;sensor_type;location;lat;lon;timestamp;P1;durP1;ratioP1;P2;durP2;ratioP2
30420;SDS011;17218;54.070;10.012;2022-08-23T00:02:07;5.68;;;2.83;;
30420;SDS011;17218;54.070;10.012;2022-08-23T00:04:35;7.97;;;2.53;;
30420;SDS011;17218;54.070;10.012;2022-08-23T00:07:05;5.70;;;2.60;;
30420;SDS011;17218;54.070;10.012;2022-08-23T00:14:52;5.25;;;2.53;;
30420;SDS011;17218;54.070;10.012;2022-08-23T00:17:19;4.43;;;2.80;;
30420;SDS011;17218;54.070;10.012;2022-08-23T00:19:47;3.00;;;2.20;;
30420;SDS011;17218;54.070;10.012;2022-08-23T00:22:13;3.42;;;2.10;;
30420;SDS011;17218;54.070;10.012;2022-08-23T00:24:41;5.93;;;2.65;;
30420;SDS011;17218;54.070;10.012;2022-08-23T00:27:09;5.65;;;2.50;;
30420;SDS011;17218;54.070;10.012;2022-08-23T00:32:14;7.32;;;2.70;;
30420;SDS011;17218;54.070;10.012;2022-08-23T00:34:43;6.70;;;2.22;;
30420;SDS011;17218;54.070;10.012;2022-08-23T00:37:10;7.22;;;2.97;;
30420;SDS011;17218;54.070;10.012;2022-08-23T00:44:47;6.93;;;2.47;;
30420;SDS011;17218;54.070;10.012;2022-08-23T00:47:33;4.25;;;2.60;;
30420;SDS011;17218;54.070;10.012;2022-08-23T01:05:40;8.55;;;3.08;;
30420;SDS011;17218;54.070;10.012;2022-08-23T01:08:12;5.15;;;2.53;;
30420;SDS011;17218;54.070;10.012;2022-08-23T01:15:49;5.82;;;2.40;;
30420;SDS011;17218;54.070;10.012;2022-08-23T01:18:20;4.68;;;2.55;;
30420;SDS011;17218;54.070;10.012;2022-08-23T01:20:53;7.68;;;2.53;;
30420;SDS011;17218;54.070;10.012;2022-08-23T01:23:28;9.02;;;2.97;;
30420;SDS011;17218;54.070;10.012;2022-08-23T01:26:00;6.97;;;2.92;;
30420;SDS011;17218;54.070;10.012;2022-08-23T01:28:28;9.43;;;3.30;;
30420;SDS011;17218;54.070;10.012;2022-08-23T01:33:33;6.95;;;2.95;;
30420;SDS011;17218;54.070;10.012;2022-08-23T01:36:00;4.00;;;2.33;;
30420;SDS011;17218;54.070;10.012;2022-08-23T01:38:33;6.72;;;2.83;;
30420;SDS011;17218;54.070;10.012;2022-08-23T01:41:00;5.05;;;2.63;;
30420;SDS011;17218;54.070;10.012;2022-08-23T01:43:27;5.20;;;3.30;;
30420;SDS011;17218;54.070;10.012;2022-08-23T01:45:53;8.60;;;2.67;;
30420;SDS011;17218;54.070;10.012;2022-08-23T01:48:21;4.85;;;2.78;;
30420;SDS011;17218;54.070;10.012;2022-08-23T01:50:47;3.53;;;2.15;;
30420;SDS011;17218;54.070;10.012;2022-08-23T01:53:14;5.50;;;2.83;;
30420;SDS011;17218;54.070;10.012;2022-08-23T01:55:42;8.60;;;3.28;;
30420;SDS011;17218;54.070;10.012;2022-08-23T01:58:09;4.50;;;2.20;;
30420;SDS011;17218;54.070;10.012;2022-08-23T02:00:36;7.45;;;3.20;;
30420;SDS011;17218;54.070;10.012;2022-08-23T02:03:04;4.63;;;2.95;;
30420;SDS011;17218;54.070;10.012;2022-08-23T02:05:32;8.15;;;2.80;;
30420;SDS011;17218;54.070;10.012;2022-08-23T02:08:01;7.47;;;2.63;;
30420;SDS011;17218;54.070;10.012;2022-08-23T02:13:22;4.93;;;2.53;;
30420;SDS011;17218;54.070;10.012;2022-08-23T02:15:48;8.52;;;2.60;;
30420;SDS011;17218;54.070;10.012;2022-08-23T02:18:16;6.07;;;2.67;;
30420;SDS011;17218;54.070;10.012;2022-08-23T02:20:43;6.40;;;3.45;;
30420;SDS011;17218;54.070;10.012;2022-08-23T02:23:11;4.85;;;2.53;;
30420;SDS011;17218;54.070;10.012;2022-08-23T02:25:38;4.50;;;2.65;;
30420;SDS011;17218;54.070;10.012;2022-08-23T02:28:05;4.45;;;2.92;;
30420;SDS011;17218;54.070;10.012;2022-08-23T02:30:33;4.05;;;2.63;;
30420;SDS011;17218;54.070;10.012;2022-08-23T02:33:00;4.75;;;2.67;;
30420;SDS011;17218;54.070;10.012;2022-08-23T02:35:27;7.50;;;2.70;;
30420;SDS011;17218;54.070;10.012;2022-08-23T02:37:54;4.93;;;2.65;;
30420;SDS011;17218;54.070;10.012;2022-08-23T02:40:20;5.43;;;2.75;;
30420;SDS011;17218;54.070;10.012;2022-08-23T02:42:47;7.05;;;3.10;;
30420;SDS011;17218;54.070;10.012;2022-08-23T02:45:13;7.13;;;3.03;;
30420;SDS011;17218;54.070;10.012;2022-08-23T02:47:42;6.57;;;3.15;;
30420;SDS011;17218;54.070;10.012;2022-08-23T02:50:09;6.75;;;3.40;;
30420;SDS011;17218;54.070;10.012;2022-08-23T02:52:37;6.32;;;2.90;;
30420;SDS011;17218;54.070;10.012;2022-08-23T02:55:03;4.35;;;2.85;;
30420;SDS011;17218;54.070;10.012;2022-08-23T02:57:31;6.25;;;3.00;;
30420;SDS011;17218;54.070;10.012;2022-08-23T03:02:33;4.28;;;2.72;;
30420;SDS011;17218;54.070;10.012;2022-08-23T03:05:02;6.18;;;3.65;;
30420;SDS011;17218;54.070;10.012;2022-08-23T03:07:29;4.03;;;2.70;;
30420;SDS011;17218;54.070;10.012;2022-08-23T03:12:31;7.95;;;2.95;;
30420;SDS011;17218;54.070;10.012;2022-08-23T03:14:58;3.55;;;2.90;;
30420;SDS011;17218;54.070;10.012;2022-08-23T03:17:24;5.40;;;3.15;;
30420;SDS011;17218;54.070;10.012;2022-08-23T03:22:27;7.45;;;3.10;;
30420;SDS011;17218;54.070;10.012;2022-08-23T03:24:54;6.43;;;2.88;;
30420;SDS011;17218;54.070;10.012;2022-08-23T03:27:21;4.80;;;3.15;;
30420;SDS011;17218;54.070;10.012;2022-08-23T03:29:47;6.05;;;3.05;;
30420;SDS011;17218;54.070;10.012;2022-08-23T03:32:14;6.25;;;3.17;;
30420;SDS011;17218;54.070;10.012;2022-08-23T03:34:41;6.22;;;2.92;;
30420;SDS011;17218;54.070;10.012;2022-08-23T03:37:07;5.03;;;3.20;;
30420;SDS011;17218;54.070;10.012;2022-08-23T03:39:35;6.82;;;3.08;;
30420;SDS011;17218;54.070;10.012;2022-08-23T03:42:02;4.68;;;2.80;;
30420;SDS011;17218;54.070;10.012;2022-08-23T03:44:29;4.32;;;2.65;;
30420;SDS011;17218;54.070;10.012;2022-08-23T03:46:57;5.90;;;2.83;;
30420;SDS011;17218;54.070;10.012;2022-08-23T03:49:23;6.75;;;3.00;;
30420;SDS011;17218;54.070;10.012;2022-08-23T03:51:50;5.50;;;2.92;;
30420;SDS011;17218;54.070;10.012;2022-08-23T03:54:17;3.90;;;2.85;;
30420;SDS011;17218;54.070;10.012;2022-08-23T03:56:50;4.22;;;2.78;;
30420;SDS011;17218;54.070;10.012;2022-08-23T03:59:19;3.95;;;2.58;;
30420;SDS011;17218;54.070;10.012;2022-08-23T04:01:47;4.78;;;3.05;;
30420;SDS011;17218;54.070;10.012;2022-08-23T04:04:13;7.40;;;2.92;;
30420;SDS011;17218;54.070;10.012;2022-08-23T04:06:40;3.90;;;2.67;;
30420;SDS011;17218;54.070;10.012;2022-08-23T04:09:09;6.20;;;2.97;;
30420;SDS011;17218;54.070;10.012;2022-08-23T04:11:35;5.25;;;3.70;;
30420;SDS011;17218;54.070;10.012;2022-08-23T04:14:04;4.63;;;2.90;;
30420;SDS011;17218;54.070;10.012;2022-08-23T04:16:31;6.35;;;3.30;;
30420;SDS011;17218;54.070;10.012;2022-08-23T04:19:01;8.63;;;3.45;;
30420;SDS011;17218;54.070;10.012;2022-08-23T04:21:28;5.90;;;3.33;;
30420;SDS011;17218;54.070;10.012;2022-08-23T04:23:54;5.70;;;3.10;;
30420;SDS011;17218;54.070;10.012;2022-08-23T04:26:21;6.10;;;3.35;;
30420;SDS011;17218;54.070;10.012;2022-08-23T04:28:48;7.32;;;3.47;;
30420;SDS011;17218;54.070;10.012;2022-08-23T04:31:16;4.38;;;2.83;;
30420;SDS011;17218;54.070;10.012;2022-08-23T04:33:45;5.82;;;3.65;;
30420;SDS011;17218;54.070;10.012;2022-08-23T04:36:11;3.95;;;2.92;;
30420;SDS011;17218;54.070;10.012;2022-08-23T04:38:38;6.20;;;3.05;;
30420;SDS011;17218;54.070;10.012;2022-08-23T04:41:05;3.90;;;3.03;;
30420;SDS011;17218;54.070;10.012;2022-08-23T04:43:49;7.38;;;3.20;;
30420;SDS011;17218;54.070;10.012;2022-08-23T04:46:17;5.32;;;3.22;;
30420;SDS011;17218;54.070;10.012;2022-08-23T04:48:44;5.32;;;3.17;;
30420;SDS011;17218;54.070;10.012;2022-08-23T04:51:11;5.47;;;3.50;;
30420;SDS011;17218;54.070;10.012;2022-08-23T04:53:38;5.00;;;3.13;;
30420;SDS011;17218;54.070;10.012;2022-08-23T04:56:05;3.67;;;3.13;;
30420;SDS011;17218;54.070;10.012;2022-08-23T04:58:33;4.50;;;3.10;;
30420;SDS011;17218;54.070;10.012;2022-08-23T05:01:03;4.80;;;2.95;;
30420;SDS011;17218;54.070;10.012;2022-08-23T05:03:34;7.25;;;3.40;;
30420;SDS011;17218;54.070;10.012;2022-08-23T05:06:00;5.63;;;3.30;;
30420;SDS011;17218;54.070;10.012;2022-08-23T05:08:29;4.93;;;3.10;;
30420;SDS011;17218;54.070;10.012;2022-08-23T05:10:58;7.07;;;3.08;;
30420;SDS011;17218;54.070;10.012;2022-08-23T05:13:25;5.00;;;3.20;;
30420;SDS011;17218;54.070;10.012;2022-08-23T05:15:51;5.85;;;2.97;;
30420;SDS011;17218;54.070;10.012;2022-08-23T05:18:18;4.38;;;2.55;;
30420;SDS011;17218;54.070;10.012;2022-08-23T05:20:46;7.80;;;3.47;;
30420;SDS011;17218;54.070;10.012;2022-08-23T05:23:13;7.07;;;2.97;;
30420;SDS011;17218;54.070;10.012;2022-08-23T05:25:39;5.75;;;3.25;;
30420;SDS011;17218;54.070;10.012;2022-08-23T05:28:15;8.35;;;3.25;;
30420;SDS011;17218;54.070;10.012;2022-08-23T05:30:43;4.57;;;2.97;;
30420;SDS011;17218;54.070;10.012;2022-08-23T05:33:18;5.15;;;3.17;;
30420;SDS011;17218;54.070;10.012;2022-08-23T05:35:46;3.60;;;2.40;;
30420;SDS011;17218;54.070;10.012;2022-08-23T05:38:15;4.85;;;2.47;;
30420;SDS011;17218;54.070;10.012;2022-08-23T05:40:41;4.38;;;2.83;;
30420;SDS011;17218;54.070;10.012;2022-08-23T05:43:08;8.07;;;3.42;;
30420;SDS011;17218;54.070;10.012;2022-08-23T05:45:34;6.63;;;3.60;;
30420;SDS011;17218;54.070;10.012;2022-08-23T05:48:01;5.97;;;3.20;;
30420;SDS011;17218;54.070;10.012;2022-08-23T05:50:28;6.80;;;3.33;;
30420;SDS011;17218;54.070;10.012;2022-08-23T05:52:56;6.05;;;2.90;;
30420;SDS011;17218;54.070;10.012;2022-08-23T05:55:23;5.18;;;2.60;;
30420;SDS011;17218;54.070;10.012;2022-08-23T05:57:49;8.43;;;3.10;;
30420;SDS011;17218;54.070;10.012;2022-08-23T06:00:16;6.25;;;2.85;;
30420;SDS011;17218;54.070;10.012;2022-08-23T06:02:42;3.47;;;2.75;;
30420;SDS011;17218;54.070;10.012;2022-08-23T06:05:09;6.45;;;3.30;;
30420;SDS011;17218;54.070;10.012;2022-08-23T06:07:36;5.03;;;2.92;;
30420;SDS011;17218;54.070;10.012;2022-08-23T06:10:04;4.60;;;2.72;;
30420;SDS011;17218;54.070;10.012;2022-08-23T06:12:32;4.20;;;2.42;;
30420;SDS011;17218;54.070;10.012;2022-08-23T06:14:59;6.75;;;3.13;;
30420;SDS011;17218;54.070;10.012;2022-08-23T06:17:25;5.45;;;3.22;;
30420;SDS011;17218;54.070;10.012;2022-08-23T06:19:52;5.03;;;3.35;;
30420;SDS011;17218;54.070;10.012;2022-08-23T06:22:19;5.28;;;2.63;;
30420;SDS011;17218;54.070;10.012;2022-08-23T06:24:45;4.78;;;2.90;;
30420;SDS011;17218;54.070;10.012;2022-08-23T06:27:13;6.68;;;2.80;;
30420;SDS011;17218;54.070;10.012;2022-08-23T06:29:40;6.18;;;2.75;;
30420;SDS011;17218;54.070;10.012;2022-08-23T06:32:07;3.28;;;2.58;;
30420;SDS011;17218;54.070;10.012;2022-08-23T06:34:34;5.95;;;2.83;;
30420;SDS011;17218;54.070;10.012;2022-08-23T06:37:03;3.20;;;2.28;;
30420;SDS011;17218;54.070;10.012;2022-08-23T06:39:31;4.78;;;2.45;;
30420;SDS011;17218;54.070;10.012;2022-08-23T06:41:59;4.97;;;2.38;;
30420;SDS011;17218;54.070;10.012;2022-08-23T06:44:29;4.75;;;2.60;;
30420;SDS011;17218;54.070;10.012;2022-08-23T06:46:56;4.88;;;2.67;;
30420;SDS011;17218;54.070;10.012;2022-08-23T06:49:23;3.88;;;2.50;;
30420;SDS011;17218;54.070;10.012;2022-08-23T06:51:52;2.70;;;2.40;;
30420;SDS011;17218;54.070;10.012;2022-08-23T06:54:21;3.75;;;2.50;;
30420;SDS011;17218;54.070;10.012;2022-08-23T06:56:49;5.65;;;2.28;;
30420;SDS011;17218;54.070;10.012;2022-08-23T06:59:16;4.38;;;2.22;;
30420;SDS011;17218;54.070;10.012;2022-08-23T07:01:45;6.07;;;2.15;;
30420;SDS011;17218;54.070;10.012;2022-08-23T07:04:15;3.83;;;2.13;;
30420;SDS011;17218;54.070;10.012;2022-08-23T07:06:44;3.08;;;2.13;;
30420;SDS011;17218;54.070;10.012;2022-08-23T07:09:11;4.10;;;2.45;;
30420;SDS011;17218;54.070;10.012;2022-08-23T07:11:38;3.38;;;2.35;;
30420;SDS011;17218;54.070;10.012;2022-08-23T07:14:06;3.55;;;2.33;;
30420;SDS011;17218;54.070;10.012;2022-08-23T07:16:36;3.60;;;2.00;;
30420;SDS011;17218;54.070;10.012;2022-08-23T07:19:06;3.97;;;2.63;;
30420;SDS011;17218;54.070;10.012;2022-08-23T07:21:33;6.32;;;2.78;;
30420;SDS011;17218;54.070;10.012;2022-08-23T07:24:01;3.35;;;2.30;;
30420;SDS011;17218;54.070;10.012;2022-08-23T07:26:29;4.45;;;2.80;;
30420;SDS011;17218;54.070;10.012;2022-08-23T07:28:56;4.68;;;2.40;;
30420;SDS011;17218;54.070;10.012;2022-08-23T07:31:24;4.45;;;2.25;;
30420;SDS011;17218;54.070;10.012;2022-08-23T07:33:52;2.97;;;1.98;;
30420;SDS011;17218;54.070;10.012;2022-08-23T07:36:23;2.75;;;2.15;;
30420;SDS011;17218;54.070;10.012;2022-08-23T07:38:51;4.15;;;2.40;;
30420;SDS011;17218;54.070;10.012;2022-08-23T07:41:18;5.15;;;2.70;;
30420;SDS011;17218;54.070;10.012;2022-08-23T07:43:45;3.60;;;1.75;;
30420;SDS011;17218;54.070;10.012;2022-08-23T07:46:12;4.25;;;2.08;;
30420;SDS011;17218;54.070;10.012;2022-08-23T07:48:39;3.65;;;1.95;;
30420;SDS011;17218;54.070;10.012;2022-08-23T07:51:07;3.38;;;1.90;;
30420;SDS011;17218;54.070;10.012;2022-08-23T07:53:37;3.20;;;1.83;;
30420;SDS011;17218;54.070;10.012;2022-08-23T07:56:04;3.67;;;1.83;;
30420;SDS011;17218;54.070;10.012;2022-08-23T07:58:32;4.15;;;2.03;;
30420;SDS011;17218;54.070;10.012;2022-08-23T08:01:07;4.22;;;1.80;;
30420;SDS011;17218;54.070;10.012;2022-08-23T08:03:36;2.17;;;1.80;;
30420;SDS011;17218;54.070;10.012;2022-08-23T08:06:05;4.30;;;2.15;;
30420;SDS011;17218;54.070;10.012;2022-08-23T08:08:32;4.85;;;2.33;;
30420;SDS011;17218;54.070;10.012;2022-08-23T08:11:00;4.88;;;1.98;;
30420;SDS011;17218;54.070;10.012;2022-08-23T08:13:27;3.05;;;1.95;;
30420;SDS011;17218;54.070;10.012;2022-08-23T08:15:55;2.58;;;2.00;;
30420;SDS011;17218;54.070;10.012;2022-08-23T08:18:22;2.67;;;2.15;;
30420;SDS011;17218;54.070;10.012;2022-08-23T08:20:49;5.13;;;2.25;;
30420;SDS011;17218;54.070;10.012;2022-08-23T08:23:15;2.50;;;2.00;;
30420;SDS011;17218;54.070;10.012;2022-08-23T08:25:43;2.42;;;1.80;;
30420;SDS011;17218;54.070;10.012;2022-08-23T08:28:10;3.35;;;1.63;;
30420;SDS011;17218;54.070;10.012;2022-08-23T08:30:37;6.72;;;1.90;;
30420;SDS011;17218;54.070;10.012;2022-08-23T08:33:04;3.30;;;1.90;;
30420;SDS011;17218;54.070;10.012;2022-08-23T08:35:30;4.50;;;1.77;;
30420;SDS011;17218;54.070;10.012;2022-08-23T08:37:57;3.17;;;1.70;;
30420;SDS011;17218;54.070;10.012;2022-08-23T08:40:25;5.05;;;1.98;;
30420;SDS011;17218;54.070;10.012;2022-08-23T08:43:03;3.97;;;1.83;;
30420;SDS011;17218;54.070;10.012;2022-08-23T08:45:43;3.97;;;1.80;;
30420;SDS011;17218;54.070;10.012;2022-08-23T08:48:18;4.20;;;1.50;;
30420;SDS011;17218;54.070;10.012;2022-08-23T08:50:50;5.72;;;2.20;;
30420;SDS011;17218;54.070;10.012;2022-08-23T08:53:22;3.38;;;1.77;;
30420;SDS011;17218;54.070;10.012;2022-08-23T08:55:54;2.58;;;1.52;;
30420;SDS011;17218;54.070;10.012;2022-08-23T08:58:25;6.28;;;1.70;;
30420;SDS011;17218;54.070;10.012;2022-08-23T09:00:57;2.90;;;1.65;;
30420;SDS011;17218;54.070;10.012;2022-08-23T09:03:23;2.92;;;1.70;;
30420;SDS011;17218;54.070;10.012;2022-08-23T09:05:59;4.80;;;2.03;;
30420;SDS011;17218;54.070;10.012;2022-08-23T09:08:34;2.55;;;1.77;;
30420;SDS011;17218;54.070;10.012;2022-08-23T09:11:14;4.10;;;1.83;;
30420;SDS011;17218;54.070;10.012;2022-08-23T09:16:51;4.88;;;1.80;;
30420;SDS011;17218;54.070;10.012;2022-08-23T09:19:19;1.67;;;1.52;;
30420;SDS011;17218;54.070;10.012;2022-08-23T09:21:48;2.95;;;1.90;;
30420;SDS011;17218;54.070;10.012;2022-08-23T09:24:21;3.55;;;1.70;;
30420;SDS011;17218;54.070;10.012;2022-08-23T09:26:49;2.80;;;1.48;;
30420;SDS011;17218;54.070;10.012;2022-08-23T09:29:20;2.13;;;1.40;;
30420;SDS011;17218;54.070;10.012;2022-08-23T09:31:49;3.55;;;1.42;;
30420;SDS011;17218;54.070;10.012;2022-08-23T09:34:20;4.25;;;1.48;;
30420;SDS011;17218;54.070;10.012;2022-08-23T09:37:04;3.05;;;1.30;;
30420;SDS011;17218;54.070;10.012;2022-08-23T09:39:36;3.13;;;1.15;;
30420;SDS011;17218;54.070;10.012;2022-08-23T09:42:07;2.55;;;1.45;;
30420;SDS011;17218;54.070;10.012;2022-08-23T09:44:51;2.92;;;1.67;;
30420;SDS011;17218;54.070;10.012;2022-08-23T09:47:20;2.65;;;1.40;;
30420;SDS011;17218;54.070;10.012;2022-08-23T09:49:58;2.60;;;1.58;;
30420;SDS011;17218;54.070;10.012;2022-08-23T09:52:34;2.30;;;1.30;;
30420;SDS011;17218;54.070;10.012;2022-08-23T09:55:04;2.10;;;1.15;;
30420;SDS011;17218;54.070;10.012;2022-08-23T09:57:35;2.92;;;1.40;;
30420;SDS011;17218;54.070;10.012;2022-08-23T10:00:16;3.20;;;2.00;;
30420;SDS011;17218;54.070;10.012;2022-08-23T10:02:51;1.98;;;1.50;;
30420;SDS011;17218;54.070;10.012;2022-08-23T10:05:27;2.05;;;1.42;;
30420;SDS011;17218;54.070;10.012;2022-08-23T10:07:56;2.88;;;1.70;;
30420;SDS011;17218;54.070;10.012;2022-08-23T10:10:26;1.83;;;1.60;;
30420;SDS011;17218;54.070;10.012;2022-08-23T10:12:57;2.17;;;1.55;;
30420;SDS011;17218;54.070;10.012;2022-08-23T10:15:31;4.50;;;2.30;;
30420;SDS011;17218;54.070;10.012;2022-08-23T10:18:09;2.17;;;1.15;;
30420;SDS011;17218;54.070;10.012;2022-08-23T10:20:44;1.83;;;1.30;;
30420;SDS011;17218;54.070;10.012;2022-08-23T10:23:19;4.07;;;1.65;;
30420;SDS011;17218;54.070;10.012;2022-08-23T10:25:58;5.45;;;1.50;;
30420;SDS011;17218;54.070;10.012;2022-08-23T10:28:29;3.28;;;1.50;;
30420;SDS011;17218;54.070;10.012;2022-08-23T10:31:25;2.97;;;1.40;;
30420;SDS011;17218;54.070;10.012;2022-08-23T10:34:05;1.83;;;1.52;;
30420;SDS011;17218;54.070;10.012;2022-08-23T10:36:59;3.20;;;1.48;;
30420;SDS011;17218;54.070;10.012;2022-08-23T10:39:38;4.20;;;1.30;;
30420;SDS011;17218;54.070;10.012;2022-08-23T10:42:16;1.88;;;1.17;;
30420;SDS011;17218;54.070;10.012;2022-08-23T10:44:49;3.67;;;1.52;;
30420;SDS011;17218;54.070;10.012;2022-08-23T10:47:24;1.90;;;1.33;;
30420;SDS011;17218;54.070;10.012;2022-08-23T10:50:02;2.45;;;1.55;;
30420;SDS011;17218;54.070;10.012;2022-08-23T10:52:32;6.70;;;1.88;;
30420;SDS011;17218;54.070;10.012;2022-08-23T10:55:06;2.58;;;1.58;;
30420;SDS011;17218;54.070;10.012;2022-08-23T10:57:48;3.28;;;1.52;;
30420;SDS011;17218;54.070;10.012;2022-08-23T11:00:18;2.88;;;1.40;;
30420;SDS011;17218;54.070;10.012;2022-08-23T11:02:51;2.97;;;1.58;;
30420;SDS011;17218;54.070;10.012;2022-08-23T11:05:27;2.85;;;1.40;;
30420;SDS011;17218;54.070;10.012;2022-08-23T11:07:57;1.50;;;1.27;;
30420;SDS011;17218;54.070;10.012;2022-08-23T11:10:29;3.25;;;1.45;;
30420;SDS011;17218;54.070;10.012;2022-08-23T11:13:00;2.95;;;1.40;;
30420;SDS011;17218;54.070;10.012;2022-08-23T11:15:36;1.92;;;1.35;;
30420;SDS011;17218;54.070;10.012;2022-08-23T11:18:07;2.60;;;1.33;;
30420;SDS011;17218;54.070;10.012;2022-08-23T11:23:35;8.90;;;2.15;;
30420;SDS011;17218;54.070;10.012;2022-08-23T11:26:08;4.25;;;1.80;;
30420;SDS011;17218;54.070;10.012;2022-08-23T11:29:25;3.67;;;1.40;;
30420;SDS011;17218;54.070;10.012;2022-08-23T11:31:56;2.55;;;1.48;;
30420;SDS011;17218;54.070;10.012;2022-08-23T11:34:27;4.68;;;1.42;;
30420;SDS011;17218;54.070;10.012;2022-08-23T11:40:03;3.92;;;1.80;;
30420;SDS011;17218;54.070;10.012;2022-08-23T11:42:43;4.40;;;1.30;;
30420;SDS011;17218;54.070;10.012;2022-08-23T11:45:23;2.65;;;1.30;;
30420;SDS011;17218;54.070;10.012;2022-08-23T11:48:07;3.90;;;1.50;;
30420;SDS011;17218;54.070;10.012;2022-08-23T11:50:41;2.20;;;1.25;;
30420;SDS011;17218;54.070;10.012;2022-08-23T11:53:22;2.55;;;1.20;;
30420;SDS011;17218;54.070;10.012;2022-08-23T11:56:06;1.83;;;1.20;;
30420;SDS011;17218;54.070;10.012;2022-08-23T11:59:00;2.60;;;1.42;;
30420;SDS011;17218;54.070;10.012;2022-08-23T12:01:39;9.05;;;1.50;;
30420;SDS011;17218;54.070;10.012;2022-08-23T12:04:07;4.78;;;1.50;;
30420;SDS011;17218;54.070;10.012;2022-08-23T12:06:43;2.30;;;1.35;;
30420;SDS011;17218;54.070;10.012;2022-08-23T12:09:47;2.83;;;1.63;;
30420;SDS011;17218;54.070;10.012;2022-08-23T12:12:32;2.95;;;1.40;;
30420;SDS011;17218;54.070;10.012;2022-08-23T12:15:00;5.68;;;1.45;;
30420;SDS011;17218;54.070;10.012;2022-08-23T12:20:35;2.33;;;1.42;;
30420;SDS011;17218;54.070;10.012;2022-08-23T12:23:04;3.10;;;1.52;;
30420;SDS011;17218;54.070;10.012;2022-08-23T12:25:39;7.95;;;1.52;;
30420;SDS011;17218;54.070;10.012;2022-08-23T12:28:10;3.05;;;1.42;;
30420;SDS011;17218;54.070;10.012;2022-08-23T12:30:55;2.78;;;1.30;;
30420;SDS011;17218;54.070;10.012;2022-08-23T12:33:26;2.55;;;1.20;;
30420;SDS011;17218;54.070;10.012;2022-08-23T12:36:00;3.22;;;1.20;;
30420;SDS011;17218;54.070;10.012;2022-08-23T12:38:36;1.30;;;1.17;;
30420;SDS011;17218;54.070;10.012;2022-08-23T12:41:15;3.22;;;1.45;;
30420;SDS011;17218;54.070;10.012;2022-08-23T12:43:55;1.98;;;1.40;;
30420;SDS011;17218;54.070;10.012;2022-08-23T12:46:28;4.97;;;1.33;;
30420;SDS011;17218;54.070;10.012;2022-08-23T12:48:56;3.83;;;1.50;;
30420;SDS011;17218;54.070;10.012;2022-08-23T12:51:23;3.03;;;1.40;;
30420;SDS011;17218;54.070;10.012;2022-08-23T12:53:49;4.72;;;1.20;;
30420;SDS011;17218;54.070;10.012;2022-08-23T12:56:19;2.67;;;1.25;;
30420;SDS011;17218;54.070;10.012;2022-08-23T12:58:49;6.18;;;1.40;;
30420;SDS011;17218;54.070;10.012;2022-08-23T13:01:19;3.97;;;1.45;;
30420;SDS011;17218;54.070;10.012;2022-08-23T13:03:47;2.40;;;1.10;;
30420;SDS011;17218;54.070;10.012;2022-08-23T13:06:18;3.10;;;1.60;;
30420;SDS011;17218;54.070;10.012;2022-08-23T13:08:49;2.83;;;1.40;;
30420;SDS011;17218;54.070;10.012;2022-08-23T13:11:21;3.60;;;1.23;;
30420;SDS011;17218;54.070;10.012;2022-08-23T13:13:57;2.22;;;1.30;;
30420;SDS011;17218;54.070;10.012;2022-08-23T13:16:26;2.97;;;1.67;;
30420;SDS011;17218;54.070;10.012;2022-08-23T13:19:09;5.10;;;1.38;;
30420;SDS011;17218;54.070;10.012;2022-08-23T13:21:39;4.55;;;1.58;;
30420;SDS011;17218;54.070;10.012;2022-08-23T13:24:25;3.47;;;1.88;;
30420;SDS011;17218;54.070;10.012;2022-08-23T13:27:10;2.85;;;1.30;;
30420;SDS011;17218;54.070;10.012;2022-08-23T13:32:29;4.88;;;1.40;;
30420;SDS011;17218;54.070;10.012;2022-08-23T13:37:54;2.92;;;1.40;;
30420;SDS011;17218;54.070;10.012;2022-08-23T13:40:24;2.40;;;1.15;;
30420;SDS011;17218;54.070;10.012;2022-08-23T13:42:56;3.10;;;1.40;;
30420;SDS011;17218;54.070;10.012;2022-08-23T13:45:27;6.25;;;1.55;;
30420;SDS011;17218;54.070;10.012;2022-08-23T13:47:56;3.78;;;1.50;;
30420;SDS011;17218;54.070;10.012;2022-08-23T13:50:27;2.33;;;1.50;;
30420;SDS011;17218;54.070;10.012;2022-08-23T13:52:55;2.90;;;1.23;;
30420;SDS011;17218;54.070;10.012;2022-08-23T13:55:22;2.67;;;1.20;;
30420;SDS011;17218;54.070;10.012;2022-08-23T13:57:49;2.28;;;1.10;;
30420;SDS011;17218;54.070;10.012;2022-08-23T14:00:18;3.58;;;1.60;;
30420;SDS011;17218;54.070;10.012;2022-08-23T14:02:45;2.72;;;1.60;;
30420;SDS011;17218;54.070;10.012;2022-08-23T14:05:13;3.00;;;1.50;;
30420;SDS011;17218;54.070;10.012;2022-08-23T14:07:41;3.95;;;1.33;;
30420;SDS011;17218;54.070;10.012;2022-08-23T14:10:08;6.30;;;1.10;;
30420;SDS011;17218;54.070;10.012;2022-08-23T14:12:35;2.65;;;1.52;;
30420;SDS011;17218;54.070;10.012;2022-08-23T14:15:02;2.25;;;1.42;;
30420;SDS011;17218;54.070;10.012;2022-08-23T14:17:31;3.55;;;1.70;;
30420;SDS011;17218;54.070;10.012;2022-08-23T14:20:05;3.70;;;1.55;;
30420;SDS011;17218;54.070;10.012;2022-08-23T14:22:33;5.28;;;1.30;;
30420;SDS011;17218;54.070;10.012;2022-08-23T14:25:00;5.82;;;1.45;;
30420;SDS011;17218;54.070;10.012;2022-08-23T14:27:27;5.20;;;1.80;;
30420;SDS011;17218;54.070;10.012;2022-08-23T14:29:53;3.42;;;1.48;;
30420;SDS011;17218;54.070;10.012;2022-08-23T14:32:20;6.38;;;1.40;;
30420;SDS011;17218;54.070;10.012;2022-08-23T14:34:48;3.25;;;1.20;;
30420;SDS011;17218;54.070;10.012;2022-08-23T14:37:15;4.13;;;1.60;;
30420;SDS011;17218;54.070;10.012;2022-08-23T14:39:41;3.00;;;1.40;;
30420;SDS011;17218;54.070;10.012;2022-08-23T14:42:08;6.30;;;1.50;;
30420;SDS011;17218;54.070;10.012;2022-08-23T14:44:36;4.82;;;1.55;;
30420;SDS011;17218;54.070;10.012;2022-08-23T14:47:03;2.00;;;1.27;;
30420;SDS011;17218;54.070;10.012;2022-08-23T14:49:30;4.15;;;1.48;;
30420;SDS011;17218;54.070;10.012;2022-08-23T14:51:58;5.80;;;1.30;;
30420;SDS011;17218;54.070;10.012;2022-08-23T14:54:24;1.85;;;1.30;;
30420;SDS011;17218;54.070;10.012;2022-08-23T14:56:51;4.95;;;1.90;;
30420;SDS011;17218;54.070;10.012;2022-08-23T14:59:18;3.90;;;1.23;;
30420;SDS011;17218;54.070;10.012;2022-08-23T15:01:45;3.55;;;1.50;;
30420;SDS011;17218;54.070;10.012;2022-08-23T15:04:13;3.60;;;1.48;;
30420;SDS011;17218;54.070;10.012;2022-08-23T15:06:43;2.58;;;1.40;;
30420;SDS011;17218;54.070;10.012;2022-08-23T15:09:12;2.70;;;1.27;;
30420;SDS011;17218;54.070;10.012;2022-08-23T15:11:38;1.67;;;1.30;;
30420;SDS011;17218;54.070;10.012;2022-08-23T15:14:05;5.10;;;1.95;;
30420;SDS011;17218;54.070;10.012;2022-08-23T15:16:31;2.22;;;1.45;;
30420;SDS011;17218;54.070;10.012;2022-08-23T15:18:59;3.13;;;1.48;;
30420;SDS011;17218;54.070;10.012;2022-08-23T15:21:25;4.15;;;1.52;;
30420;SDS011;17218;54.070;10.012;2022-08-23T15:23:52;3.42;;;1.30;;
30420;SDS011;17218;54.070;10.012;2022-08-23T15:26:21;6.00;;;1.50;;
30420;SDS011;17218;54.070;10.012;2022-08-23T15:28:50;5.32;;;1.60;;
30420;SDS011;17218;54.070;10.012;2022-08-23T15:31:17;3.13;;;1.70;;
30420;SDS011;17218;54.070;10.012;2022-08-23T15:33:45;6.28;;;1.45;;
30420;SDS011;17218;54.070;10.012;2022-08-23T15:36:12;4.22;;;1.23;;
30420;SDS011;17218;54.070;10.012;2022-08-23T15:38:40;2.22;;;1.38;;
30420;SDS011;17218;54.070;10.012;2022-08-23T15:41:08;3.00;;;1.40;;
30420;SDS011;17218;54.070;10.012;2022-08-23T15:43:36;5.18;;;1.60;;
30420;SDS011;17218;54.070;10.012;2022-08-23T15:46:04;3.17;;;1.13;;
30420;SDS011;17218;54.070;10.012;2022-08-23T15:48:32;4.85;;;1.42;;
30420;SDS011;17218;54.070;10.012;2022-08-23T15:51:01;3.88;;;1.42;;
30420;SDS011;17218;54.070;10.012;2022-08-23T15:53:30;3.35;;;1.52;;
30420;SDS011;17218;54.070;10.012;2022-08-23T15:55:57;3.05;;;1.38;;